Lemitar, New Mexico
Current Conditions -  °F | °C
As of 1:35 PM on Friday 31 Oct 2014 (Local Time) from KONM Reporting Station
Clear Clear  
Wind Chill: 19°   Ceiling: Unl
Heat Index: 19°   Visibility: 10mi
Dew Point:   Wind: 12mph
Humidity: 32%   Direction: 160°SSE
Pressure: 30.27"   Gusts: NA
Location:  34.16°N, 106.91°W
Report Text: KONM 311935Z AUTO 16010KT 10SM CLR 19/02 A3027 RMK AO2 T01920019
Loading
Personal Weather Stations






























Interactive Weather Map
Tropical Storm Tracking
New forecast layout! Learn more

10-Day Weather Forecast

Advertisements
Track Severe Weather on mobile